Aérodrome :
LOGIN :

S'inscrire | Disclaimer

   EN    FR    IT 

 










Légende :    VFR   VFR Marginal   IFR   IFR Intensif   IFR Très Intensif
Visi : 
Plafond : 
>= 8 km
>= 3000ft
5 à 8 km
1000 à 3000 ft
1500m à 5 km
500 à 1000 ft
800 à 1500m
200 à 500 ft
< 800m
< 200 ft
Symboles :   Orages  Brouillard  Fortes neiges  Fortes précipitations  Vent > 20 kt
SIGMETs :   Divers  Orages  Givrage  Turbulence  Onde Orograph.  Cendres Volcan.







- Altitude de l'aérodrome : 135 ft
- Code IATA : EDI
- Voir les cartes d'approche


EGPH - Edinburgh

DERNIER METAR :
  • 202350Z 23004KT 190V260 CAVOK M04/M06 Q1010

METARs EXPIRÉS :
  • 202320Z VRB03KT CAVOK M04/M06 Q1010
  • 202250Z 24005KT CAVOK M05/M06 Q1010
  • 202220Z 25006KT CAVOK M04/M05 Q1009
  • 202150Z 26004KT CAVOK M04/M05 Q1009
  • 202120Z 25004KT CAVOK M04/M05 Q1008

TAF TAF EGPH
Valide du 21 à 00h jusqu'au 22 à 00h UTC


202303Z 2100/2124 24007KT 9999 FEW030
BECMG 2109/2112 14010KT
TEMPO 2112/2115 6000 -RASN BKN006
PROB40
TEMPO 2112/2115 3000 SN BKN004
TEMPO 2115/2122 6000 -RA BKN008
PROB40
TEMPO 2115/2118 4000 FZRA BKN004
BECMG 2116/2119 24010KT
PROB30
TEMPO 2118/2120 4000 RA BKN004
PROB30
TEMPO 2122/2124 24015G25KT
ATIS : +44 131 339 2823
Pas de NOTAMs connus pour ce terrain.



MET'MAP, la Météo Aéronautique d'un coup d'oeil ! - Copyright ORBIFLY Décembre 2007 - Disclaimer

ORBIFLY MET'MAP TEAM :

Programmation & Développement : Alexandra Zaïnal
Conception & Développement : Baudouin d'Aumeries
Co-Programmation & Développement : Marc-Olivier Méhu
Soutien technique & logistique : Manuel Goepfert

Contact : metmap@orbifly.com




SOURCES & CREDITS :

   NOAA